createdAt,value
2022-07-27T00:00:49.676Z,9.20
2022-07-27T00:03:16.402Z,8.15
2022-07-27T00:05:46.398Z,10.27
2022-07-27T00:08:13.165Z,8.75
2022-07-27T00:10:39.834Z,5.30
2022-07-27T00:13:07.101Z,4.53
2022-07-27T00:15:34.725Z,9.13
2022-07-27T00:18:02.019Z,4.57
2022-07-27T00:20:30.426Z,11.75
2022-07-27T00:22:58.005Z,5.32
2022-07-27T00:25:27.091Z,6.40
2022-07-27T00:27:56.857Z,5.78
2022-07-27T00:30:24.779Z,6.30
2022-07-27T00:32:51.636Z,5.35
2022-07-27T00:35:18.809Z,3.85
2022-07-27T00:37:45.411Z,9.23
2022-07-27T00:40:12.762Z,11.52
2022-07-27T00:42:39.451Z,7.38
2022-07-27T00:45:06.834Z,7.93
2022-07-27T00:47:33.491Z,4.70
2022-07-27T00:50:01.059Z,3.75
2022-07-27T00:52:30.012Z,6.68
2022-07-27T00:54:57.989Z,5.10
2022-07-27T00:57:26.605Z,5.32
2022-07-27T00:59:53.324Z,8.55
2022-07-27T01:02:20.505Z,6.30
2022-07-27T01:04:49.832Z,5.57
2022-07-27T01:07:21.610Z,7.85
2022-07-27T01:10:04.488Z,9.70
2022-07-27T01:12:32.315Z,7.63
2022-07-27T01:15:00.145Z,8.85
2022-07-27T01:17:30.802Z,10.07
2022-07-27T01:19:58.898Z,5.18
2022-07-27T01:22:26.233Z,9.18
2022-07-27T01:24:53.115Z,9.23
2022-07-27T01:27:19.724Z,6.57
2022-07-27T01:29:46.399Z,7.38
2022-07-27T01:32:13.241Z,14.48
2022-07-27T01:34:40.008Z,10.25
2022-07-27T01:37:06.999Z,6.20
2022-07-27T01:39:34.323Z,10.25
2022-07-27T01:42:01.626Z,8.93
2022-07-27T01:44:28.800Z,8.40
2022-07-27T01:46:55.792Z,8.18
2022-07-27T01:49:22.991Z,10.60
2022-07-27T01:51:49.883Z,9.85
2022-07-27T01:54:16.693Z,8.77
2022-07-27T01:56:43.833Z,6.20
2022-07-27T01:59:16.238Z,7.05
2022-07-27T02:01:44.841Z,8.85
2022-07-27T02:04:11.718Z,15.30
2022-07-27T02:06:38.399Z,6.38
2022-07-27T02:09:05.110Z,9.00
2022-07-27T02:11:47.069Z,11.35
2022-07-27T02:14:13.788Z,12.48
2022-07-27T02:16:40.536Z,11.80
2022-07-27T02:19:07.293Z,8.25
2022-07-27T02:21:35.610Z,7.55
2022-07-27T02:24:02.323Z,7.88
2022-07-27T02:26:29.101Z,9.60
2022-07-27T02:28:55.788Z,7.10
2022-07-27T02:31:22.569Z,6.80
2022-07-27T02:33:49.301Z,8.90
2022-07-27T02:36:16.020Z,7.72
2022-07-27T02:38:42.637Z,11.20
2022-07-27T02:41:10.340Z,6.30
2022-07-27T02:43:37.245Z,6.65
2022-07-27T02:46:03.948Z,12.38
2022-07-27T02:48:32.626Z,9.75
2022-07-27T02:51:01.969Z,7.18
2022-07-27T02:53:30.183Z,8.98
2022-07-27T02:55:57.646Z,10.02
2022-07-27T02:58:24.910Z,11.43
2022-07-27T03:00:54.942Z,7.15
2022-07-27T03:03:36.711Z,11.77
2022-07-27T03:06:05.769Z,8.50
2022-07-27T03:08:32.478Z,9.13
2022-07-27T03:10:59.118Z,8.65
2022-07-27T03:13:26.651Z,9.38
2022-07-27T03:15:53.421Z,11.43
2022-07-27T03:18:20.760Z,6.93
2022-07-27T03:20:47.499Z,8.52
2022-07-27T03:23:14.155Z,9.95
2022-07-27T03:25:40.849Z,7.95
2022-07-27T03:28:07.505Z,6.63
2022-07-27T03:30:34.208Z,5.18
2022-07-27T03:33:01.101Z,9.25
2022-07-27T03:35:27.872Z,5.60
2022-07-27T03:37:54.627Z,9.02
2022-07-27T03:40:21.391Z,8.15
2022-07-27T03:42:48.134Z,6.60
2022-07-27T03:45:14.871Z,8.93
2022-07-27T03:47:41.548Z,8.68
2022-07-27T03:50:08.598Z,11.70
2022-07-27T03:52:35.538Z,12.38
2022-07-27T03:55:02.283Z,11.80
2022-07-27T03:57:30.224Z,10.40
2022-07-27T03:59:56.887Z,9.55
2022-07-27T04:02:23.639Z,10.20
2022-07-27T04:04:50.559Z,9.45
2022-07-27T04:07:20.973Z,10.85
2022-07-27T04:09:47.649Z,8.32
2022-07-27T04:12:15.128Z,8.55
2022-07-27T04:14:44.184Z,13.82
2022-07-27T04:17:10.974Z,12.63
2022-07-27T04:19:37.877Z,11.25
2022-07-27T04:22:04.528Z,10.52
2022-07-27T04:24:31.267Z,8.30
2022-07-27T04:26:58.022Z,22.73
2022-07-27T04:29:25.051Z,15.90
2022-07-27T04:31:51.795Z,10.32
2022-07-27T04:34:20.226Z,8.65
2022-07-27T04:36:46.904Z,19.30
2022-07-27T04:39:13.941Z,9.98
2022-07-27T04:41:41.017Z,8.77
2022-07-27T04:44:07.684Z,11.07
2022-07-27T04:46:34.409Z,13.95
2022-07-27T04:49:01.212Z,11.25
2022-07-27T04:51:32.549Z,13.05
2022-07-27T04:54:01.838Z,7.80
2022-07-27T04:56:28.571Z,6.07
2022-07-27T04:58:56.177Z,14.02
2022-07-27T05:01:23.445Z,10.38
2022-07-27T05:03:50.547Z,13.50
2022-07-27T05:06:17.590Z,9.80
2022-07-27T05:08:44.512Z,12.05
2022-07-27T05:11:11.190Z,8.43
2022-07-27T05:13:40.525Z,11.13
2022-07-27T05:16:09.418Z,11.32
2022-07-27T05:18:37.785Z,11.30
2022-07-27T05:21:05.419Z,16.33
2022-07-27T05:23:32.060Z,12.80
2022-07-27T05:25:58.782Z,15.13
2022-07-27T05:28:27.962Z,13.73
2022-07-27T05:30:54.774Z,13.63
2022-07-27T05:33:21.433Z,11.18
2022-07-27T05:35:48.232Z,12.13
2022-07-27T05:38:14.966Z,11.93
2022-07-27T05:40:44.610Z,14.00
2022-07-27T05:43:11.256Z,14.07
2022-07-27T05:45:38.263Z,15.30
2022-07-27T05:48:05.208Z,14.25
2022-07-27T05:50:32.174Z,13.32
2022-07-27T05:53:00.644Z,12.57
2022-07-27T05:55:27.533Z,14.48
2022-07-27T05:57:54.261Z,14.10
2022-07-27T06:00:21.042Z,16.33
2022-07-27T06:02:47.755Z,16.45
2022-07-27T06:05:17.442Z,16.00
2022-07-27T06:08:00.077Z,13.02
2022-07-27T06:10:30.232Z,16.63
2022-07-27T06:12:57.254Z,20.60
2022-07-27T06:15:24.833Z,12.60
2022-07-27T06:17:53.943Z,14.90
2022-07-27T06:20:22.314Z,16.08
2022-07-27T06:22:52.880Z,14.63
2022-07-27T06:25:21.692Z,20.63
2022-07-27T06:27:48.622Z,19.52
2022-07-27T06:30:17.982Z,17.63
2022-07-27T06:32:45.156Z,18.35
2022-07-27T06:35:13.865Z,17.15
2022-07-27T06:37:52.809Z,19.60
2022-07-27T06:40:20.458Z,15.43
2022-07-27T06:42:47.248Z,13.60
2022-07-27T06:45:14.175Z,17.83
2022-07-27T06:47:48.775Z,17.60
2022-07-27T06:50:18.703Z,16.02
2022-07-27T06:52:45.417Z,16.25
2022-07-27T06:55:13.214Z,14.93
2022-07-27T06:57:40.194Z,11.40
2022-07-27T07:00:07.612Z,14.98
2022-07-27T07:02:34.352Z,21.80
2022-07-27T07:05:01.024Z,17.08
2022-07-27T07:07:27.661Z,13.60
2022-07-27T07:09:54.301Z,16.95
2022-07-27T07:12:21.096Z,13.98
2022-07-27T07:14:47.806Z,18.20
2022-07-27T07:17:14.557Z,20.25
2022-07-27T07:19:41.339Z,15.77
2022-07-27T07:22:08.021Z,15.35
2022-07-27T07:24:34.659Z,16.55
2022-07-27T07:27:02.006Z,14.18
2022-07-27T07:29:28.763Z,16.98
2022-07-27T07:31:55.578Z,20.55
2022-07-27T07:34:22.288Z,23.13
2022-07-27T07:36:49.074Z,16.83
2022-07-27T07:39:17.262Z,19.92
2022-07-27T07:41:44.315Z,21.90
2022-07-27T07:44:11.077Z,27.15
2022-07-27T07:46:37.948Z,23.65
2022-07-27T07:49:05.264Z,22.75
2022-07-27T07:51:32.257Z,24.10
2022-07-27T07:53:59.453Z,21.60
2022-07-27T07:56:26.223Z,20.33
2022-07-27T07:58:53.215Z,22.65
2022-07-27T08:01:20.131Z,23.13
2022-07-27T08:03:50.873Z,18.70
2022-07-27T08:06:18.959Z,27.42
2022-07-27T08:08:48.913Z,17.25
2022-07-27T08:11:15.682Z,19.17
2022-07-27T08:13:42.419Z,24.00
2022-07-27T08:16:09.275Z,20.52
2022-07-27T08:18:36.019Z,22.83
2022-07-27T08:21:02.930Z,23.73
2022-07-27T08:23:31.859Z,23.30
2022-07-27T08:26:00.043Z,28.08
2022-07-27T08:28:28.966Z,24.10
2022-07-27T08:30:58.800Z,31.95
2022-07-27T08:33:26.264Z,20.40
2022-07-27T08:35:53.475Z,30.27
2022-07-27T08:38:20.177Z,30.02
2022-07-27T08:40:49.015Z,24.40
2022-07-27T08:43:23.765Z,26.23
2022-07-27T08:45:55.081Z,36.78
2022-07-27T08:48:24.138Z,28.08
2022-07-27T08:50:51.148Z,24.13
2022-07-27T08:53:18.535Z,33.05
2022-07-27T08:55:47.493Z,29.52
2022-07-27T08:58:15.756Z,27.20
2022-07-27T09:00:44.836Z,23.38
2022-07-27T09:03:18.511Z,26.58
2022-07-27T09:05:51.502Z,24.77
2022-07-27T09:08:22.161Z,28.25
2022-07-27T09:10:48.855Z,23.83
2022-07-27T09:13:32.112Z,25.33
2022-07-27T09:16:19.784Z,25.67
2022-07-27T09:18:48.730Z,28.05
2022-07-27T09:21:18.564Z,25.65
2022-07-27T09:23:54.842Z,27.65
2022-07-27T09:26:33.130Z,26.20
2022-07-27T09:29:04.159Z,27.42
2022-07-27T09:31:32.005Z,24.25
2022-07-27T09:34:01.509Z,23.67
2022-07-27T09:36:29.554Z,26.67
2022-07-27T09:39:06.993Z,26.05
2022-07-27T09:41:43.519Z,24.88
2022-07-27T09:44:31.224Z,20.02
2022-07-27T09:46:57.965Z,20.05
2022-07-27T09:49:30.304Z,24.17
2022-07-27T09:52:01.063Z,21.92
2022-07-27T09:54:42.120Z,29.55
2022-07-27T09:57:09.078Z,22.45
2022-07-27T09:59:35.729Z,26.45
2022-07-27T10:02:03.012Z,23.90
2022-07-27T10:04:33.248Z,23.88
2022-07-27T10:07:03.863Z,26.55
2022-07-27T10:09:35.021Z,26.10
2022-07-27T10:12:04.557Z,23.13
2022-07-27T10:14:32.934Z,28.20
2022-07-27T10:17:00.324Z,30.70
2022-07-27T10:19:39.375Z,27.10
2022-07-27T10:22:06.226Z,24.30
2022-07-27T10:24:36.933Z,23.35
2022-07-27T10:27:20.740Z,21.25
2022-07-27T10:29:50.593Z,24.05
2022-07-27T10:32:33.825Z,22.80
2022-07-27T10:35:02.426Z,21.08
2022-07-27T10:37:31.549Z,26.80
2022-07-27T10:40:15.590Z,25.58
2022-07-27T10:42:43.419Z,22.13
2022-07-27T10:45:18.444Z,22.80
2022-07-27T10:47:47.752Z,29.05
2022-07-27T10:50:15.399Z,21.85
2022-07-27T10:52:48.187Z,24.83
2022-07-27T10:55:30.603Z,26.33
2022-07-27T10:57:58.873Z,23.10
2022-07-27T11:01:06.632Z,33.40
2022-07-27T11:03:41.573Z,29.35
2022-07-27T11:06:32.463Z,23.25
2022-07-27T11:11:49.638Z,31.13
2022-07-27T11:14:19.285Z,26.20
2022-07-27T11:17:17.207Z,27.52
2022-07-27T11:19:45.231Z,30.15
2022-07-27T11:22:28.366Z,23.02
2022-07-27T11:24:55.741Z,29.08
2022-07-27T11:27:25.397Z,23.42
2022-07-27T11:29:52.311Z,33.05
2022-07-27T11:32:19.996Z,26.20
2022-07-27T11:34:47.524Z,35.40
2022-07-27T11:37:19.768Z,25.42
2022-07-27T11:40:00.278Z,23.85
2022-07-27T11:42:39.377Z,23.50
2022-07-27T11:45:06.769Z,29.27
2022-07-27T11:47:34.237Z,22.67
2022-07-27T11:50:07.427Z,24.40
2022-07-27T11:52:34.597Z,24.17
2022-07-27T11:55:01.975Z,21.90
2022-07-27T11:57:33.939Z,22.85
2022-07-27T12:00:00.718Z,23.42
2022-07-27T12:02:27.635Z,20.98
2022-07-27T12:05:00.484Z,19.75
2022-07-27T12:07:31.725Z,24.75
2022-07-27T12:10:04.682Z,17.05
2022-07-27T12:12:32.656Z,16.55
2022-07-27T12:15:11.630Z,18.27
2022-07-27T12:17:56.169Z,19.92
2022-07-27T12:20:32.744Z,19.33
2022-07-27T12:23:05.645Z,17.17
2022-07-27T12:25:33.458Z,22.05
2022-07-27T12:28:05.761Z,18.80
2022-07-27T12:30:42.216Z,16.48
2022-07-27T12:33:27.748Z,19.85
2022-07-27T12:35:54.950Z,19.13
2022-07-27T12:38:21.932Z,21.52
2022-07-27T12:40:50.618Z,14.57
2022-07-27T12:43:19.788Z,19.60
2022-07-27T12:45:48.561Z,17.30
2022-07-27T12:48:18.561Z,20.13
2022-07-27T12:50:48.038Z,16.88
2022-07-27T12:53:16.772Z,17.92
2022-07-27T12:55:44.698Z,16.70
2022-07-27T12:58:14.140Z,13.95
2022-07-27T13:00:41.603Z,14.68
2022-07-27T13:03:08.935Z,13.18
2022-07-27T13:05:36.026Z,17.98
2022-07-27T13:08:04.871Z,14.13
2022-07-27T13:10:32.399Z,14.80
2022-07-27T13:12:59.216Z,15.32
2022-07-27T13:15:26.780Z,13.25
2022-07-27T13:17:53.547Z,14.20
2022-07-27T13:20:20.334Z,13.00
2022-07-27T13:22:47.744Z,12.30
2022-07-27T13:25:17.176Z,16.92
2022-07-27T13:27:46.321Z,14.57
2022-07-27T13:30:15.913Z,16.60
2022-07-27T13:32:43.349Z,16.95
2022-07-27T13:35:12.561Z,11.93
2022-07-27T13:37:40.321Z,17.75
2022-07-27T13:40:08.394Z,16.35
2022-07-27T13:42:35.424Z,18.17
2022-07-27T13:45:09.365Z,13.95
2022-07-27T13:47:38.141Z,10.80
2022-07-27T13:50:05.918Z,13.48
2022-07-27T13:52:32.649Z,11.05
2022-07-27T13:54:59.430Z,11.43
2022-07-27T13:57:26.133Z,9.00
2022-07-27T13:59:53.034Z,9.82
2022-07-27T14:02:23.022Z,19.30
2022-07-27T14:04:51.823Z,12.52
2022-07-27T14:07:18.604Z,11.32
2022-07-27T14:10:00.537Z,13.50
2022-07-27T14:12:27.465Z,11.88
2022-07-27T14:14:54.188Z,9.27
2022-07-27T14:17:20.836Z,7.60
2022-07-27T14:19:47.526Z,12.63
2022-07-27T14:22:14.235Z,11.68
2022-07-27T14:24:40.968Z,11.15
2022-07-27T14:27:07.998Z,16.83
2022-07-27T14:29:34.799Z,13.40
2022-07-27T14:32:01.979Z,8.50
2022-07-27T14:34:28.766Z,11.98
2022-07-27T14:36:55.733Z,12.70
2022-07-27T14:39:23.004Z,10.07
2022-07-27T14:41:49.892Z,12.80
2022-07-27T14:44:18.654Z,12.75
2022-07-27T14:46:46.761Z,11.75
2022-07-27T14:49:14.958Z,10.82
2022-07-27T14:51:41.885Z,11.73
2022-07-27T14:54:08.784Z,11.13
2022-07-27T14:56:36.696Z,8.77
2022-07-27T14:59:04.211Z,13.88
2022-07-27T15:01:30.949Z,11.68
2022-07-27T15:03:57.780Z,8.40
2022-07-27T15:06:24.719Z,6.35
2022-07-27T15:08:51.538Z,8.00
2022-07-27T15:11:18.407Z,9.00
2022-07-27T15:13:45.261Z,9.63
2022-07-27T15:16:12.170Z,7.82
2022-07-27T15:18:39.238Z,6.40
2022-07-27T15:21:10.913Z,13.65
2022-07-27T15:23:41.934Z,7.95
2022-07-27T15:26:08.686Z,7.97
2022-07-27T15:28:36.450Z,8.05
2022-07-27T15:31:03.484Z,6.97
2022-07-27T15:33:30.664Z,6.90
2022-07-27T15:35:57.473Z,5.43
2022-07-27T15:38:24.199Z,7.63
2022-07-27T15:40:50.826Z,5.82
2022-07-27T15:43:18.400Z,5.50
2022-07-27T15:45:49.936Z,12.00
2022-07-27T15:48:19.826Z,8.25
2022-07-27T15:50:51.850Z,8.40
2022-07-27T15:53:20.866Z,6.72
2022-07-27T15:55:48.603Z,7.40
2022-07-27T15:58:19.387Z,9.85
2022-07-27T16:00:48.646Z,8.85
2022-07-27T16:03:16.591Z,7.78
2022-07-27T16:05:44.817Z,9.43
2022-07-27T16:08:11.812Z,8.23
2022-07-27T16:10:43.252Z,5.75
2022-07-27T16:13:12.767Z,7.75
2022-07-27T16:15:56.961Z,8.05
2022-07-27T16:18:24.231Z,7.82
2022-07-27T16:20:51.917Z,11.57
2022-07-27T16:23:21.712Z,6.80
2022-07-27T16:26:07.942Z,10.57
2022-07-27T16:31:08.055Z,5.00
2022-07-27T16:33:35.053Z,4.72
2022-07-27T16:36:02.160Z,6.53
2022-07-27T16:38:29.134Z,8.35
2022-07-27T16:40:55.943Z,9.75
2022-07-27T16:43:23.178Z,5.72
2022-07-27T16:46:02.829Z,5.90
2022-07-27T16:48:34.286Z,5.82
2022-07-27T16:53:33.678Z,5.90
2022-07-27T16:56:00.521Z,7.63
2022-07-27T16:58:28.690Z,5.45
2022-07-27T17:00:55.852Z,5.22
2022-07-27T17:03:22.670Z,6.25
2022-07-27T17:05:49.526Z,4.45
2022-07-27T17:08:16.265Z,6.07
2022-07-27T17:10:42.967Z,4.78
2022-07-27T17:13:13.329Z,9.52
2022-07-27T17:15:40.554Z,6.40
2022-07-27T17:18:07.349Z,4.45
2022-07-27T17:20:35.438Z,5.85
2022-07-27T17:23:04.055Z,8.85
2022-07-27T17:25:30.852Z,9.32
2022-07-27T17:27:57.714Z,6.53
2022-07-27T17:30:24.905Z,6.38
2022-07-27T17:32:52.151Z,7.30
2022-07-27T17:35:19.054Z,7.13
2022-07-27T17:38:05.157Z,5.70
2022-07-27T17:40:32.507Z,6.45
2022-07-27T17:42:59.199Z,7.40
2022-07-27T17:45:26.055Z,8.13
2022-07-27T17:47:52.816Z,5.00
2022-07-27T17:50:19.570Z,7.55
2022-07-27T17:52:46.331Z,5.60
2022-07-27T17:55:13.117Z,3.88
2022-07-27T17:57:39.976Z,5.25
2022-07-27T18:00:09.659Z,6.90
2022-07-27T18:02:36.567Z,8.68
2022-07-27T18:05:03.856Z,7.10
2022-07-27T18:07:30.690Z,4.47
2022-07-27T18:10:06.627Z,8.05
2022-07-27T18:12:35.125Z,5.78
2022-07-27T18:15:17.257Z,6.40
2022-07-27T18:17:43.889Z,4.00
2022-07-27T18:20:11.444Z,6.18
2022-07-27T18:22:38.738Z,5.97
2022-07-27T18:25:07.312Z,6.53
2022-07-27T18:27:35.489Z,3.97
2022-07-27T18:30:04.673Z,5.60
2022-07-27T18:32:32.899Z,5.07
2022-07-27T18:35:00.280Z,7.88
2022-07-27T18:37:27.218Z,8.52
2022-07-27T18:39:53.954Z,6.90
2022-07-27T18:42:20.596Z,5.13
2022-07-27T18:44:47.337Z,8.98
2022-07-27T18:47:14.038Z,13.00
2022-07-27T18:49:40.776Z,7.13
2022-07-27T18:52:07.500Z,9.30
2022-07-27T18:54:34.323Z,6.82
2022-07-27T18:57:01.204Z,5.90
2022-07-27T18:59:27.877Z,7.78
2022-07-27T19:01:54.713Z,8.25
2022-07-27T19:04:21.782Z,8.05
2022-07-27T19:06:51.695Z,5.18
2022-07-27T19:09:18.778Z,9.23
2022-07-27T19:11:45.494Z,10.00
2022-07-27T19:14:12.278Z,6.88
2022-07-27T19:16:39.102Z,6.68
2022-07-27T19:19:08.891Z,5.78
2022-07-27T19:21:40.293Z,7.10
2022-07-27T19:24:07.346Z,5.47
2022-07-27T19:26:34.160Z,7.95
2022-07-27T19:29:00.876Z,8.07
2022-07-27T19:31:28.280Z,7.03
2022-07-27T19:33:56.102Z,9.07
2022-07-27T19:36:23.193Z,6.15
2022-07-27T19:38:50.639Z,6.35
2022-07-27T19:41:17.601Z,8.63
2022-07-27T19:43:44.439Z,8.45
2022-07-27T19:46:11.352Z,5.40
2022-07-27T19:48:38.116Z,4.55
2022-07-27T19:51:07.004Z,6.28
2022-07-27T19:53:35.635Z,7.68
2022-07-27T19:56:03.072Z,9.05
2022-07-27T19:58:31.346Z,9.13
2022-07-27T20:00:58.467Z,6.75
2022-07-27T20:03:25.237Z,8.85
2022-07-27T20:05:53.119Z,5.00
2022-07-27T20:08:19.893Z,6.05
2022-07-27T20:10:49.805Z,4.75
2022-07-27T20:13:16.483Z,5.88
2022-07-27T20:15:43.277Z,5.68
2022-07-27T20:18:09.952Z,9.13
2022-07-27T20:20:36.868Z,13.48
2022-07-27T20:23:03.887Z,6.43
2022-07-27T20:25:30.580Z,8.30
2022-07-27T20:27:57.306Z,5.30
2022-07-27T20:30:24.116Z,5.13
2022-07-27T20:32:50.923Z,7.10
2022-07-27T20:35:18.191Z,8.23
2022-07-27T20:37:45.912Z,6.00
2022-07-27T20:40:13.172Z,7.20
2022-07-27T20:42:41.763Z,7.20
2022-07-27T20:45:11.200Z,6.82
2022-07-27T20:47:38.994Z,5.65
2022-07-27T20:50:18.977Z,6.57
2022-07-27T20:53:04.008Z,5.78
2022-07-27T20:55:54.986Z,8.27
2022-07-27T20:58:35.027Z,7.13
2022-07-27T21:01:25.148Z,6.80
2022-07-27T21:04:05.270Z,7.10
2022-07-27T21:06:54.999Z,5.65
2022-07-27T21:09:44.979Z,6.72
2022-07-27T21:12:25.303Z,7.95
2022-07-27T21:15:14.997Z,7.25
2022-07-27T21:18:05.018Z,6.75
2022-07-27T21:20:58.000Z,5.82
2022-07-27T21:23:56.807Z,7.63
2022-07-27T21:26:47.018Z,6.25
2022-07-27T21:29:39.006Z,6.18
2022-07-27T21:32:29.004Z,4.93
2022-07-27T21:35:19.027Z,7.63
2022-07-27T21:37:59.444Z,6.82
2022-07-27T21:40:49.028Z,7.90
2022-07-27T21:43:22.598Z,7.60
2022-07-27T21:45:50.155Z,6.85
2022-07-27T21:48:17.037Z,5.72
2022-07-27T21:50:43.786Z,7.60
2022-07-27T21:53:10.626Z,12.10
2022-07-27T21:55:39.102Z,6.07
2022-07-27T21:58:05.819Z,6.00
2022-07-27T22:00:33.303Z,5.60
2022-07-27T22:03:00.017Z,6.38
2022-07-27T22:05:27.339Z,9.70
2022-07-27T22:07:54.050Z,8.02
2022-07-27T22:10:20.816Z,6.05
2022-07-27T22:12:47.628Z,8.15
2022-07-27T22:15:14.365Z,7.50
2022-07-27T22:17:49.800Z,5.13
2022-07-27T22:20:18.365Z,9.75
2022-07-27T22:22:45.442Z,6.05
2022-07-27T22:25:12.341Z,7.20
2022-07-27T22:27:39.197Z,5.90
2022-07-27T22:30:07.580Z,12.10
2022-07-27T22:32:34.677Z,6.63
2022-07-27T22:35:01.843Z,7.53
2022-07-27T22:37:28.624Z,5.43
2022-07-27T22:39:55.293Z,7.93
2022-07-27T22:42:21.962Z,6.60
2022-07-27T22:44:48.901Z,7.40
2022-07-27T22:47:15.940Z,4.90
2022-07-27T22:49:42.700Z,5.95
2022-07-27T22:52:09.407Z,8.52
2022-07-27T22:54:37.910Z,8.25
2022-07-27T22:57:06.133Z,7.43
2022-07-27T22:59:33.778Z,6.85
2022-07-27T23:02:01.248Z,8.02
2022-07-27T23:04:28.097Z,5.80
2022-07-27T23:06:55.191Z,8.43
2022-07-27T23:09:23.150Z,11.50
2022-07-27T23:11:50.619Z,8.80
2022-07-27T23:14:17.833Z,11.02
2022-07-27T23:16:45.352Z,8.00
2022-07-27T23:19:12.121Z,7.05
2022-07-27T23:21:39.673Z,7.60
2022-07-27T23:24:09.777Z,11.43
2022-07-27T23:26:36.677Z,10.07
2022-07-27T23:29:03.503Z,8.57
2022-07-27T23:31:30.243Z,8.95
2022-07-27T23:33:57.054Z,7.97
2022-07-27T23:36:23.767Z,10.35
2022-07-27T23:38:50.390Z,10.15
2022-07-27T23:41:17.112Z,8.07
2022-07-27T23:43:44.891Z,8.43
2022-07-27T23:46:11.856Z,9.07
2022-07-27T23:48:38.656Z,11.85
2022-07-27T23:51:05.479Z,10.50
2022-07-27T23:53:32.104Z,9.45
2022-07-27T23:55:58.994Z,9.35
2022-07-27T23:58:25.741Z,10.82
